createdAt,value
2023-05-10T00:03:54.299Z,6.47
2023-05-10T00:14:01.111Z,5.27
2023-05-10T00:24:03.528Z,4.83
2023-05-10T00:34:07.972Z,4.70
2023-05-10T00:44:12.509Z,4.83
2023-05-10T00:54:16.451Z,4.27
2023-05-10T01:04:18.825Z,4.80
2023-05-10T01:14:23.599Z,4.20
2023-05-10T01:24:37.842Z,4.43
2023-05-10T01:34:47.645Z,4.77
2023-05-10T01:44:58.346Z,4.57
2023-05-10T01:55:04.629Z,4.47
2023-05-10T02:05:11.883Z,4.10
2023-05-10T02:15:17.150Z,4.20
2023-05-10T02:25:24.623Z,3.90
2023-05-10T02:35:29.744Z,4.17
2023-05-10T02:45:36.927Z,3.73
2023-05-10T02:55:43.484Z,4.33
2023-05-10T03:05:46.320Z,4.73
2023-05-10T03:16:05.659Z,4.20
2023-05-10T03:26:09.049Z,4.37
2023-05-10T03:36:13.737Z,3.80
2023-05-10T03:46:16.154Z,4.37
2023-05-10T03:56:22.351Z,4.33
2023-05-10T04:06:27.556Z,3.90
2023-05-10T04:16:31.002Z,4.20
2023-05-10T04:26:36.061Z,4.63
2023-05-10T04:36:40.633Z,4.37
2023-05-10T04:46:45.174Z,4.27
2023-05-10T04:56:47.523Z,3.97
2023-05-10T05:06:53.992Z,3.97
2023-05-10T05:16:57.047Z,3.90
2023-05-10T05:27:05.950Z,3.50
2023-05-10T05:37:14.633Z,3.40
2023-05-10T05:47:17.616Z,3.60
2023-05-10T05:57:19.862Z,4.20
2023-05-10T06:07:23.644Z,2.90
2023-05-10T06:17:26.459Z,3.47
2023-05-10T06:27:31.018Z,3.25
2023-05-10T06:37:35.708Z,2.90
2023-05-10T06:47:39.165Z,3.30
2023-05-10T06:57:44.179Z,2.42
2023-05-10T07:07:53.811Z,2.55
2023-05-10T07:17:58.701Z,2.60
2023-05-10T07:28:03.646Z,2.33
2023-05-10T07:38:08.451Z,2.95
2023-05-10T07:48:14.119Z,2.15
2023-05-10T07:58:18.350Z,2.67
2023-05-10T08:08:27.308Z,1.45
2023-05-10T08:18:33.029Z,2.00
2023-05-10T08:28:38.290Z,1.70
2023-05-10T08:38:41.392Z,1.83
2023-05-10T08:48:44.764Z,2.08
2023-05-10T08:58:52.723Z,2.13
2023-05-10T09:08:54.886Z,2.40
2023-05-10T09:18:57.462Z,2.10
2023-05-10T09:29:01.046Z,2.42
2023-05-10T09:39:03.634Z,2.38
2023-05-10T09:49:11.549Z,2.38
2023-05-10T09:59:14.291Z,2.22
2023-05-10T10:09:19.892Z,2.05
2023-05-10T10:19:22.871Z,2.13
2023-05-10T10:29:53.109Z,2.33
2023-05-10T10:39:58.044Z,2.13
2023-05-10T10:50:05.286Z,1.92
2023-05-10T11:00:34.816Z,1.90
2023-05-10T11:10:40.636Z,1.98
2023-05-10T11:20:48.022Z,2.10
2023-05-10T11:30:57.529Z,2.00
2023-05-10T11:40:59.809Z,2.30
2023-05-10T11:51:06.626Z,2.00
2023-05-10T12:01:12.610Z,2.28
2023-05-10T12:11:16.752Z,1.85
2023-05-10T12:21:24.528Z,2.28
2023-05-10T12:31:29.856Z,2.35
2023-05-10T12:41:36.016Z,2.22
2023-05-10T12:51:38.373Z,2.13
2023-05-10T13:01:45.164Z,2.00
2023-05-10T13:11:50.599Z,1.98
2023-05-10T13:21:55.614Z,1.80
2023-05-10T13:32:02.075Z,1.80
2023-05-10T13:42:05.134Z,2.08
2023-05-10T13:52:11.360Z,2.30
2023-05-10T14:02:15.573Z,1.85
2023-05-10T14:12:23.313Z,2.17
2023-05-10T14:22:29.343Z,2.10
2023-05-10T14:32:35.284Z,2.47
2023-05-10T14:42:42.779Z,2.10
2023-05-10T14:52:48.006Z,1.90
2023-05-10T15:02:50.647Z,2.38
2023-05-10T15:12:57.158Z,2.35
2023-05-10T15:23:00.214Z,2.20
2023-05-10T15:33:03.092Z,2.10
2023-05-10T15:43:08.646Z,2.25
2023-05-10T15:53:11.365Z,2.25
2023-05-10T16:03:16.087Z,1.83
2023-05-10T16:13:18.621Z,2.00
2023-05-10T16:23:21.111Z,2.72
2023-05-10T16:33:25.153Z,1.80
2023-05-10T16:43:31.294Z,1.75
2023-05-10T16:53:36.534Z,1.85
2023-05-10T17:03:44.414Z,1.70
2023-05-10T17:13:48.087Z,1.90
2023-05-10T17:23:51.096Z,2.00
2023-05-10T17:33:58.617Z,2.00
2023-05-10T17:44:02.497Z,2.10
2023-05-10T17:54:16.468Z,2.10
2023-05-10T18:04:19.991Z,2.50
2023-05-10T18:14:39.820Z,2.22
2023-05-10T18:24:47.323Z,2.20
2023-05-10T18:34:55.877Z,2.42
2023-05-10T18:45:01.493Z,2.30
2023-05-10T18:55:09.820Z,2.53
2023-05-10T19:05:15.988Z,2.40
2023-05-10T19:15:22.024Z,2.83
2023-05-10T19:25:29.998Z,3.30
2023-05-10T19:35:32.183Z,2.88
2023-05-10T19:45:37.356Z,3.33
2023-05-10T19:55:39.726Z,3.20
2023-05-10T20:05:46.782Z,3.25
2023-05-10T20:16:01.079Z,2.95
2023-05-10T20:26:06.575Z,3.85
2023-05-10T20:36:09.975Z,3.90
2023-05-10T20:46:12.456Z,3.40
2023-05-10T20:56:16.974Z,3.40
2023-05-10T21:06:21.807Z,3.75
2023-05-10T21:16:23.987Z,4.47
2023-05-10T21:26:26.131Z,4.22
2023-05-10T21:36:30.856Z,4.03
2023-05-10T21:46:37.525Z,4.72
2023-05-10T21:56:39.934Z,4.15
2023-05-10T22:06:42.295Z,4.50
2023-05-10T22:16:47.161Z,3.97
2023-05-10T22:26:57.003Z,4.35
2023-05-10T22:37:00.342Z,3.80
2023-05-10T22:47:02.915Z,3.50
2023-05-10T22:57:07.528Z,3.60
2023-05-10T23:07:12.488Z,4.05
2023-05-10T23:17:17.030Z,3.30
2023-05-10T23:27:19.152Z,3.70
2023-05-10T23:37:23.622Z,3.27
2023-05-10T23:47:25.760Z,3.40
2023-05-10T23:57:30.038Z,3.63
